Main page
METAR-TAF:

METAR-TAF

Airports :

Karpathos, Greece

Karpathos Island National Airport

latitude: 35-24-51N, longitude: 027-08-54E, elevation: 6 m

Current weather observation

The report was made 25 minutes ago, at 22:50 UTC
Wind 13 kt from the West/Southwest
Temperature 14°C
Humidity 72%
Pressure 1019 hPa

METAR: LGKP 192250Z AUTO 25013KT //// // ////// 14/09 Q1019 RERA

Time: 01:15 (23:15 UTC)

Forecast

The report was made 3 hours and 15 minutes ago, at 20:00 UTC
Forecast valid from 19 at 21 UTC to 20 at 06 UTC
Wind 15 kt from the West
Visibility 10 km or more
Few clouds at a height of 2500 ft

TAF: LGKP 192000Z 1921/2006 28015KT 9999 FEW025

Weather observations and forecasts of more than 4000 airports (METAR and TAF reports).

The available stations are represented by yellow and red dots on the map.

Hover mouse over dot to see the name of the station.

Then click to see weather observations and forecasts.

To change the map : click on the green buttons with a black cross to zoom in, on the green button with a dash to zoom out, or on the green arrows for adjacent maps.


METAR-TAF: